createdAt,value
2023-02-11T00:00:26.580Z,31.80
2023-02-11T00:01:26.565Z,32.00
2023-02-11T00:02:26.543Z,31.60
2023-02-11T00:03:26.626Z,31.30
2023-02-11T00:04:26.505Z,31.10
2023-02-11T00:05:26.529Z,32.10
2023-02-11T00:06:26.480Z,32.20
2023-02-11T00:07:26.466Z,32.10
2023-02-11T00:08:26.456Z,31.30
2023-02-11T00:09:26.453Z,32.20
2023-02-11T00:10:26.450Z,31.90
2023-02-11T00:11:26.440Z,33.40
2023-02-11T00:12:26.442Z,33.00
2023-02-11T00:13:26.397Z,31.40
2023-02-11T00:14:26.395Z,33.20
2023-02-11T00:15:26.415Z,32.80
2023-02-11T00:16:26.394Z,33.10
2023-02-11T00:17:26.360Z,31.80
2023-02-11T00:18:26.351Z,31.00
2023-02-11T00:19:26.329Z,31.40
2023-02-11T00:20:26.280Z,32.30
2023-02-11T00:21:26.295Z,31.50
2023-02-11T00:22:26.273Z,31.80
2023-02-11T00:23:26.312Z,32.80
2023-02-11T00:24:26.241Z,31.80
2023-02-11T00:25:26.262Z,32.70
2023-02-11T00:26:26.233Z,32.70
2023-02-11T00:27:26.239Z,33.60
2023-02-11T00:28:26.203Z,33.20
2023-02-11T00:29:26.224Z,32.10
2023-02-11T00:30:26.221Z,31.80
2023-02-11T00:31:26.368Z,31.80
2023-02-11T00:32:26.145Z,31.00
2023-02-11T00:33:26.140Z,32.40
2023-02-11T00:34:26.139Z,31.60
2023-02-11T00:35:26.129Z,31.70
2023-02-11T00:36:26.129Z,31.80
2023-02-11T00:37:26.107Z,31.70
2023-02-11T00:38:26.065Z,31.50
2023-02-11T00:39:26.087Z,32.20
2023-02-11T00:40:26.087Z,31.90
2023-02-11T00:41:26.054Z,32.80
2023-02-11T00:42:26.052Z,31.60
2023-02-11T00:43:26.016Z,31.70
2023-02-11T00:44:26.018Z,32.10
2023-02-11T00:45:25.994Z,32.10
2023-02-11T00:46:26.034Z,32.90
2023-02-11T00:47:26.018Z,32.10
2023-02-11T00:48:25.949Z,33.80
2023-02-11T00:49:26.009Z,32.60
2023-02-11T00:50:25.937Z,32.90
2023-02-11T00:51:25.927Z,34.60
2023-02-11T00:52:32.939Z,32.70
2023-02-11T00:53:25.889Z,31.50
2023-02-11T00:54:27.365Z,31.60
2023-02-11T00:55:25.858Z,32.20
2023-02-11T00:56:25.848Z,33.10
2023-02-11T00:57:25.817Z,31.30
2023-02-11T00:58:25.830Z,32.80
2023-02-11T00:59:25.797Z,31.30
2023-02-11T01:00:25.789Z,32.90
2023-02-11T01:01:25.822Z,31.80
2023-02-11T01:02:25.776Z,33.20
2023-02-11T01:03:25.749Z,32.40
2023-02-11T01:04:25.748Z,32.80
2023-02-11T01:05:25.812Z,32.10
2023-02-11T01:06:25.708Z,32.10
2023-02-11T01:07:25.701Z,32.30
2023-02-11T01:08:25.696Z,32.00
2023-02-11T01:09:25.681Z,31.70
2023-02-11T01:10:25.664Z,31.10
2023-02-11T01:11:25.665Z,32.00
2023-02-11T01:12:25.656Z,31.20
2023-02-11T01:13:25.644Z,32.20
2023-02-11T01:14:25.635Z,31.40
2023-02-11T01:15:25.611Z,32.80
2023-02-11T01:16:28.302Z,34.50
2023-02-11T01:17:25.595Z,31.90
2023-02-11T01:18:25.576Z,31.70
2023-02-11T01:19:25.589Z,31.40
2023-02-11T01:20:25.557Z,31.90
2023-02-11T01:21:25.532Z,31.20
2023-02-11T01:22:25.530Z,32.70
2023-02-11T01:23:25.517Z,33.00
2023-02-11T01:24:25.513Z,30.90
2023-02-11T01:25:25.483Z,32.20
2023-02-11T01:26:25.478Z,32.90
2023-02-11T01:27:25.453Z,30.60
2023-02-11T01:28:25.519Z,30.50
2023-02-11T01:29:25.458Z,31.30
2023-02-11T01:30:25.440Z,31.30
2023-02-11T01:31:25.458Z,31.50
2023-02-11T01:32:25.397Z,30.60
2023-02-11T01:33:25.382Z,32.00
2023-02-11T01:34:25.423Z,31.80
2023-02-11T01:35:25.363Z,30.70
2023-02-11T01:36:25.356Z,31.50
2023-02-11T01:37:25.348Z,32.00
2023-02-11T01:38:25.349Z,31.90
2023-02-11T01:39:25.305Z,31.60
2023-02-11T01:40:25.302Z,33.40
2023-02-11T01:41:25.288Z,32.90
2023-02-11T01:42:25.263Z,32.60
2023-02-11T01:43:25.268Z,32.70
2023-02-11T01:44:25.264Z,32.70
2023-02-11T01:45:25.266Z,31.50
2023-02-11T01:46:25.279Z,32.30
2023-02-11T01:47:25.232Z,32.80
2023-02-11T01:48:25.193Z,31.00
2023-02-11T01:49:25.312Z,32.50
2023-02-11T01:50:25.181Z,32.80
2023-02-11T01:51:25.198Z,31.80
2023-02-11T01:52:25.161Z,31.40
2023-02-11T01:53:25.151Z,32.00
2023-02-11T01:54:25.144Z,32.50
2023-02-11T01:55:25.135Z,32.70
2023-02-11T01:56:25.133Z,32.20
2023-02-11T01:57:25.353Z,31.30
2023-02-11T01:58:25.099Z,31.20
2023-02-11T01:59:25.062Z,31.90
2023-02-11T02:00:25.057Z,31.70
2023-02-11T02:01:25.066Z,31.60
2023-02-11T02:02:25.054Z,31.30
2023-02-11T02:03:25.062Z,30.60
2023-02-11T02:04:25.006Z,31.40
2023-02-11T02:05:25.014Z,31.30
2023-02-11T02:06:24.997Z,30.90
2023-02-11T02:07:25.003Z,31.80
2023-02-11T02:08:24.968Z,30.20
2023-02-11T02:09:24.950Z,31.20
2023-02-11T02:10:24.940Z,32.70
2023-02-11T02:11:24.912Z,31.20
2023-02-11T02:12:24.901Z,31.30
2023-02-11T02:13:24.912Z,31.50
2023-02-11T02:14:24.894Z,31.70
2023-02-11T02:15:24.862Z,32.30
2023-02-11T02:16:24.858Z,32.60
2023-02-11T02:17:24.854Z,31.00
2023-02-11T02:18:24.818Z,31.50
2023-02-11T02:19:24.808Z,31.00
2023-02-11T02:20:24.788Z,31.00
2023-02-11T02:21:24.799Z,30.00
2023-02-11T02:22:24.770Z,30.70
2023-02-11T02:23:24.779Z,31.40
2023-02-11T02:24:24.763Z,31.10
2023-02-11T02:25:24.752Z,31.80
2023-02-11T02:26:24.738Z,31.20
2023-02-11T02:27:24.706Z,30.80
2023-02-11T02:28:24.774Z,33.30
2023-02-11T02:29:24.708Z,30.60
2023-02-11T02:30:24.703Z,31.60
2023-02-11T02:31:24.663Z,31.10
2023-02-11T02:32:24.646Z,33.70
2023-02-11T02:33:24.679Z,31.10
2023-02-11T02:34:24.616Z,30.80
2023-02-11T02:35:24.617Z,31.10
2023-02-11T02:36:24.592Z,31.80
2023-02-11T02:37:24.591Z,31.90
2023-02-11T02:38:24.569Z,31.90
2023-02-11T02:39:24.566Z,31.80
2023-02-11T02:40:24.547Z,32.10
2023-02-11T02:41:24.546Z,31.60
2023-02-11T02:42:24.518Z,30.70
2023-02-11T02:43:24.528Z,31.30
2023-02-11T02:44:24.498Z,31.50
2023-02-11T02:45:24.485Z,31.20
2023-02-11T02:46:24.574Z,31.10
2023-02-11T02:47:24.478Z,30.70
2023-02-11T02:48:24.445Z,31.50
2023-02-11T02:49:24.443Z,31.90
2023-02-11T02:50:24.407Z,31.30
2023-02-11T02:51:24.406Z,32.30
2023-02-11T02:52:24.412Z,31.00
2023-02-11T02:53:24.377Z,33.50
2023-02-11T02:54:24.357Z,31.80
2023-02-11T02:55:24.358Z,32.10
2023-02-11T02:56:24.374Z,31.20
2023-02-11T02:57:24.326Z,31.50
2023-02-11T02:58:24.330Z,34.20
2023-02-11T02:59:24.369Z,31.60
2023-02-11T03:00:24.324Z,30.80
2023-02-11T03:01:24.317Z,31.70
2023-02-11T03:02:24.306Z,31.00
2023-02-11T03:03:24.358Z,31.00
2023-02-11T03:04:24.296Z,29.80
2023-02-11T03:05:24.257Z,31.00
2023-02-11T03:06:24.221Z,32.20
2023-02-11T03:07:24.242Z,32.60
2023-02-11T03:08:24.206Z,31.70
2023-02-11T03:09:24.211Z,29.60
2023-02-11T03:10:24.174Z,30.80
2023-02-11T03:11:24.148Z,30.80
2023-02-11T03:12:24.142Z,30.00
2023-02-11T03:13:24.119Z,30.40
2023-02-11T03:14:24.120Z,30.50
2023-02-11T03:15:24.120Z,30.90
2023-02-11T03:16:24.136Z,32.80
2023-02-11T03:17:24.095Z,31.80
2023-02-11T03:18:24.078Z,31.10
2023-02-11T03:19:24.069Z,31.40
2023-02-11T03:20:24.035Z,31.40
2023-02-11T03:21:24.032Z,30.80
2023-02-11T03:22:24.033Z,30.30
2023-02-11T03:23:24.021Z,31.70
2023-02-11T03:24:23.978Z,31.40
2023-02-11T03:25:23.982Z,30.90
2023-02-11T03:26:23.962Z,30.60
2023-02-11T03:27:23.953Z,30.80
2023-02-11T03:28:23.977Z,30.80
2023-02-11T03:29:23.938Z,31.20
2023-02-11T03:30:23.898Z,30.40
2023-02-11T03:31:24.070Z,32.20
2023-02-11T03:32:23.894Z,31.40
2023-02-11T03:33:23.866Z,33.00
2023-02-11T03:34:23.858Z,30.80
2023-02-11T03:35:23.852Z,31.50
2023-02-11T03:36:23.818Z,30.90
2023-02-11T03:37:23.822Z,31.10
2023-02-11T03:38:23.808Z,32.00
2023-02-11T03:39:23.805Z,30.80
2023-02-11T03:40:23.769Z,29.90
2023-02-11T03:41:23.780Z,30.90
2023-02-11T03:42:23.761Z,32.90
2023-02-11T03:43:23.737Z,30.70
2023-02-11T03:44:23.731Z,30.80
2023-02-11T03:45:23.708Z,31.80
2023-02-11T03:46:23.821Z,32.00
2023-02-11T03:47:23.707Z,31.30
2023-02-11T03:48:23.678Z,31.80
2023-02-11T03:49:23.657Z,31.70
2023-02-11T03:50:23.649Z,32.20
2023-02-11T03:51:23.652Z,30.80
2023-02-11T03:52:23.631Z,31.30
2023-02-11T03:53:23.624Z,31.00
2023-02-11T03:54:23.623Z,31.80
2023-02-11T03:55:23.587Z,30.80
2023-02-11T03:56:23.586Z,30.20
2023-02-11T03:57:23.560Z,30.40
2023-02-11T03:58:23.551Z,31.20
2023-02-11T03:59:23.528Z,32.30
2023-02-11T04:00:23.528Z,32.10
2023-02-11T04:01:23.643Z,30.70
2023-02-11T04:02:23.511Z,30.80
2023-02-11T04:03:23.515Z,32.30
2023-02-11T04:04:23.468Z,32.80
2023-02-11T04:05:23.447Z,30.80
2023-02-11T04:06:23.442Z,30.70
2023-02-11T04:07:23.437Z,30.80
2023-02-11T04:08:23.430Z,31.70
2023-02-11T04:09:23.420Z,31.60
2023-02-11T04:10:23.405Z,31.40
2023-02-11T04:11:23.406Z,32.40
2023-02-11T04:12:23.365Z,32.00
2023-02-11T04:13:23.369Z,31.50
2023-02-11T04:14:23.345Z,30.50
2023-02-11T04:15:23.373Z,32.40
2023-02-11T04:16:23.440Z,32.10
2023-02-11T04:17:23.313Z,30.90
2023-02-11T04:18:23.310Z,32.20
2023-02-11T04:19:23.268Z,31.70
2023-02-11T04:20:23.266Z,31.60
2023-02-11T04:21:23.257Z,30.20
2023-02-11T04:22:23.270Z,32.20
2023-02-11T04:23:23.232Z,31.10
2023-02-11T04:24:23.207Z,32.00
2023-02-11T04:25:23.219Z,30.40
2023-02-11T04:26:23.191Z,30.70
2023-02-11T04:27:23.167Z,31.40
2023-02-11T04:28:23.208Z,31.70
2023-02-11T04:29:23.162Z,32.70
2023-02-11T04:30:23.157Z,31.10
2023-02-11T04:31:23.246Z,31.10
2023-02-11T04:32:23.124Z,31.20
2023-02-11T04:33:23.114Z,30.80
2023-02-11T04:34:23.090Z,31.00
2023-02-11T04:35:23.072Z,31.20
2023-02-11T04:36:23.066Z,30.70
2023-02-11T04:37:23.071Z,32.70
2023-02-11T04:38:23.041Z,30.90
2023-02-11T04:39:23.028Z,30.40
2023-02-11T04:40:23.001Z,31.10
2023-02-11T04:41:22.989Z,31.90
2023-02-11T04:42:22.978Z,32.10
2023-02-11T04:43:22.974Z,29.90
2023-02-11T04:44:22.962Z,30.70
2023-02-11T04:45:22.971Z,32.20
2023-02-11T04:46:23.005Z,30.70
2023-02-11T04:47:22.911Z,30.10
2023-02-11T04:48:22.918Z,30.80
2023-02-11T04:49:22.878Z,30.30
2023-02-11T04:50:22.893Z,30.80
2023-02-11T04:51:22.857Z,30.80
2023-02-11T04:52:22.871Z,30.30
2023-02-11T04:53:22.838Z,30.90
2023-02-11T04:54:22.829Z,31.60
2023-02-11T04:55:22.828Z,31.10
2023-02-11T04:56:22.815Z,30.40
2023-02-11T04:57:22.804Z,31.40
2023-02-11T04:58:22.768Z,32.60
2023-02-11T04:59:22.773Z,31.20
2023-02-11T05:00:22.769Z,32.10
2023-02-11T05:01:22.774Z,31.40
2023-02-11T05:02:22.742Z,32.70
2023-02-11T05:03:22.714Z,30.70
2023-02-11T05:04:22.812Z,31.20
2023-02-11T05:05:22.682Z,33.20
2023-02-11T05:06:22.722Z,31.00
2023-02-11T05:07:22.662Z,31.40
2023-02-11T05:08:22.644Z,31.20
2023-02-11T05:09:22.635Z,31.40
2023-02-11T05:10:22.628Z,30.40
2023-02-11T05:11:22.600Z,31.20
2023-02-11T05:12:22.594Z,31.70
2023-02-11T05:13:22.572Z,32.40
2023-02-11T05:14:22.570Z,31.30
2023-02-11T05:15:22.561Z,31.20
2023-02-11T05:16:22.581Z,31.80
2023-02-11T05:17:22.531Z,32.30
2023-02-11T05:18:22.523Z,31.40
2023-02-11T05:19:22.486Z,30.30
2023-02-11T05:20:22.510Z,32.10
2023-02-11T05:21:22.473Z,32.00
2023-02-11T05:22:22.462Z,32.00
2023-02-11T05:23:22.456Z,30.90
2023-02-11T05:24:22.448Z,31.70
2023-02-11T05:25:22.416Z,32.00
2023-02-11T05:26:22.409Z,34.00
2023-02-11T05:27:22.398Z,32.70
2023-02-11T05:28:22.445Z,32.90
2023-02-11T05:29:22.347Z,32.80
2023-02-11T05:30:22.377Z,31.80
2023-02-11T05:31:22.354Z,31.60
2023-02-11T05:32:22.334Z,30.60
2023-02-11T05:33:22.320Z,31.60
2023-02-11T05:34:22.322Z,31.70
2023-02-11T05:35:22.316Z,31.10
2023-02-11T05:36:22.273Z,31.00
2023-02-11T05:37:22.310Z,31.50
2023-02-11T05:38:22.246Z,30.30
2023-02-11T05:39:22.241Z,30.30
2023-02-11T05:40:22.227Z,31.60
2023-02-11T05:41:22.233Z,30.80
2023-02-11T05:42:22.209Z,30.90
2023-02-11T05:43:22.198Z,31.10
2023-02-11T05:44:22.166Z,30.90
2023-02-11T05:45:22.159Z,32.50
2023-02-11T05:46:22.177Z,30.40
2023-02-11T05:47:22.125Z,30.20
2023-02-11T05:48:22.144Z,31.10
2023-02-11T05:49:22.124Z,30.70
2023-02-11T05:50:22.108Z,30.60
2023-02-11T05:51:22.110Z,30.10
2023-02-11T05:52:22.084Z,30.30
2023-02-11T05:53:22.075Z,32.90
2023-02-11T05:54:22.045Z,30.40
2023-02-11T05:55:22.025Z,30.40
2023-02-11T05:56:22.028Z,29.70
2023-02-11T05:57:22.015Z,30.00
2023-02-11T05:58:21.995Z,30.50
2023-02-11T05:59:21.989Z,29.80
2023-02-11T06:00:21.972Z,30.20
2023-02-11T06:01:21.969Z,31.50
2023-02-11T06:02:21.957Z,30.70
2023-02-11T06:03:21.965Z,32.40
2023-02-11T06:04:21.935Z,31.30
2023-02-11T06:05:21.909Z,29.80
2023-02-11T06:06:21.888Z,29.90
2023-02-11T06:07:21.894Z,30.70
2023-02-11T06:08:21.863Z,30.30
2023-02-11T06:09:21.872Z,29.70
2023-02-11T06:10:21.849Z,30.30
2023-02-11T06:11:21.814Z,30.10
2023-02-11T06:12:21.806Z,30.60
2023-02-11T06:13:21.800Z,31.00
2023-02-11T06:14:21.811Z,29.90
2023-02-11T06:15:21.765Z,29.80
2023-02-11T06:16:21.808Z,30.60
2023-02-11T06:17:21.751Z,30.90
2023-02-11T06:18:21.736Z,30.90
2023-02-11T06:19:21.754Z,30.30
2023-02-11T06:20:21.706Z,31.60
2023-02-11T06:21:21.694Z,30.60
2023-02-11T06:22:21.701Z,31.10
2023-02-11T06:23:21.678Z,30.40
2023-02-11T06:24:44.371Z,31.50
2023-02-11T06:25:22.693Z,30.90
2023-02-11T06:26:21.656Z,31.80
2023-02-11T06:27:21.615Z,31.40
2023-02-11T06:28:21.649Z,30.90
2023-02-11T06:29:21.599Z,31.10
2023-02-11T06:30:21.626Z,31.20
2023-02-11T06:31:21.650Z,31.80
2023-02-11T06:32:42.231Z,31.40
2023-02-11T06:33:22.549Z,30.60
2023-02-11T06:34:21.540Z,30.30
2023-02-11T06:35:21.514Z,30.30
2023-02-11T06:36:21.517Z,30.30
2023-02-11T06:37:21.524Z,30.30
2023-02-11T06:38:21.486Z,30.60
2023-02-11T06:39:21.463Z,29.80
2023-02-11T06:40:21.456Z,29.40
2023-02-11T06:41:21.457Z,29.90
2023-02-11T06:42:21.497Z,30.30
2023-02-11T06:43:21.437Z,31.10
2023-02-11T06:44:21.420Z,31.80
2023-02-11T06:45:21.384Z,33.40
2023-02-11T06:46:21.480Z,30.60
2023-02-11T06:47:21.406Z,30.40
2023-02-11T06:48:21.433Z,30.20
2023-02-11T06:49:21.335Z,30.50
2023-02-11T06:50:21.338Z,30.90
2023-02-11T06:51:21.357Z,32.40
2023-02-11T06:52:21.365Z,31.20
2023-02-11T06:53:21.306Z,31.40
2023-02-11T06:54:21.282Z,31.00
2023-02-11T06:55:21.257Z,30.70
2023-02-11T06:56:21.283Z,30.60
2023-02-11T06:57:21.264Z,30.70
2023-02-11T06:58:21.244Z,32.00
2023-02-11T06:59:21.208Z,29.70
2023-02-11T07:00:21.222Z,30.40
2023-02-11T07:01:21.338Z,29.70
2023-02-11T07:02:21.433Z,32.50
2023-02-11T07:03:21.287Z,31.90
2023-02-11T07:04:21.176Z,31.40
2023-02-11T07:05:21.170Z,30.60
2023-02-11T07:06:21.137Z,30.70
2023-02-11T07:07:21.130Z,31.30
2023-02-11T07:08:21.148Z,30.60
2023-02-11T07:09:21.101Z,30.50
2023-02-11T07:10:21.120Z,29.70
2023-02-11T07:11:21.090Z,31.60
2023-02-11T07:12:21.076Z,30.50
2023-02-11T07:13:21.090Z,32.40
2023-02-11T07:14:21.047Z,30.70
2023-02-11T07:15:21.016Z,30.10
2023-02-11T07:16:21.170Z,30.00
2023-02-11T07:17:20.985Z,30.10
2023-02-11T07:18:20.975Z,29.90
2023-02-11T07:19:20.977Z,29.80
2023-02-11T07:20:20.959Z,29.90
2023-02-11T07:21:20.935Z,30.70
2023-02-11T07:22:20.967Z,31.00
2023-02-11T07:23:20.919Z,31.00
2023-02-11T07:24:20.910Z,32.20
2023-02-11T07:25:20.880Z,32.40
2023-02-11T07:26:20.876Z,31.10
2023-02-11T07:27:20.879Z,30.60
2023-02-11T07:28:20.890Z,29.70
2023-02-11T07:29:20.842Z,29.80
2023-02-11T07:30:20.840Z,30.60
2023-02-11T07:31:20.930Z,29.70
2023-02-11T07:32:20.880Z,30.20
2023-02-11T07:33:20.807Z,31.10
2023-02-11T07:34:20.783Z,30.20
2023-02-11T07:35:20.770Z,30.00
2023-02-11T07:36:20.752Z,29.90
2023-02-11T07:37:20.774Z,29.40
2023-02-11T07:38:20.736Z,29.90
2023-02-11T07:39:20.777Z,29.90
2023-02-11T07:40:20.708Z,30.70
2023-02-11T07:41:20.680Z,30.60
2023-02-11T07:42:20.693Z,29.90
2023-02-11T07:43:20.698Z,30.10
2023-02-11T07:44:20.694Z,29.80
2023-02-11T07:45:20.647Z,30.80
2023-02-11T07:46:20.658Z,29.60
2023-02-11T07:47:20.634Z,30.50
2023-02-11T07:48:20.592Z,29.90
2023-02-11T07:49:20.588Z,28.70
2023-02-11T07:50:20.574Z,30.20
2023-02-11T07:51:20.556Z,30.30
2023-02-11T07:52:20.562Z,30.30
2023-02-11T07:53:20.595Z,30.10
2023-02-11T07:54:20.549Z,29.50
2023-02-11T07:55:20.503Z,28.60
2023-02-11T07:56:20.515Z,30.30
2023-02-11T07:57:20.488Z,29.40
2023-02-11T07:58:20.479Z,29.40
2023-02-11T07:59:20.470Z,30.40
2023-02-11T08:00:21.283Z,29.30
2023-02-11T08:01:20.497Z,29.80
2023-02-11T08:02:20.485Z,28.50
2023-02-11T08:03:20.427Z,31.40
2023-02-11T08:04:27.447Z,29.70
2023-02-11T08:05:20.400Z,29.90
2023-02-11T08:06:20.411Z,30.70
2023-02-11T08:07:20.362Z,31.00
2023-02-11T08:08:21.101Z,30.50
2023-02-11T08:09:21.118Z,29.50
2023-02-11T08:10:20.334Z,28.90
2023-02-11T08:11:20.324Z,29.60
2023-02-11T08:12:20.276Z,29.50
2023-02-11T08:13:20.280Z,29.70
2023-02-11T08:14:20.256Z,29.80
2023-02-11T08:15:20.269Z,30.00
2023-02-11T08:16:20.323Z,31.50
2023-02-11T08:17:20.232Z,30.10
2023-02-11T08:18:20.234Z,29.60
2023-02-11T08:19:20.203Z,28.60
2023-02-11T08:20:20.288Z,29.40
2023-02-11T08:21:20.184Z,29.00
2023-02-11T08:22:20.166Z,30.40
2023-02-11T08:23:20.143Z,29.60
2023-02-11T08:24:20.122Z,29.00
2023-02-11T08:25:20.124Z,29.60
2023-02-11T08:26:20.117Z,28.50
2023-02-11T08:27:20.106Z,28.60
2023-02-11T08:28:20.157Z,29.60
2023-02-11T08:29:20.107Z,29.20
2023-02-11T08:30:20.065Z,29.00
2023-02-11T08:31:20.154Z,29.50
2023-02-11T08:32:20.106Z,29.30
2023-02-11T08:33:20.034Z,28.50
2023-02-11T08:34:20.011Z,31.40
2023-02-11T08:35:20.028Z,28.40
2023-02-11T08:36:19.970Z,30.10
2023-02-11T08:37:19.993Z,28.90
2023-02-11T08:38:19.942Z,29.20
2023-02-11T08:39:20.766Z,29.70
2023-02-11T08:40:19.937Z,28.70
2023-02-11T08:41:19.965Z,29.30
2023-02-11T08:42:19.898Z,29.80
2023-02-11T08:43:19.902Z,27.90
2023-02-11T08:44:19.883Z,28.50
2023-02-11T08:45:19.886Z,28.30
2023-02-11T08:46:19.917Z,29.10
2023-02-11T08:47:19.857Z,27.80
2023-02-11T08:48:19.822Z,27.80
2023-02-11T08:49:19.824Z,30.40
2023-02-11T08:50:19.825Z,29.60
2023-02-11T08:51:19.806Z,28.90
2023-02-11T08:52:19.945Z,28.80
2023-02-11T08:53:19.772Z,28.50
2023-02-11T08:54:19.785Z,29.50
2023-02-11T08:55:19.752Z,27.40
2023-02-11T08:56:19.727Z,31.30
2023-02-11T08:57:19.726Z,29.70
2023-02-11T08:58:19.698Z,28.60
2023-02-11T08:59:19.701Z,28.40
2023-02-11T09:00:19.676Z,28.20
2023-02-11T09:01:22.303Z,30.10
2023-02-11T09:02:19.719Z,28.50
2023-02-11T09:03:19.654Z,29.80
2023-02-11T09:04:19.628Z,29.90
2023-02-11T09:05:19.631Z,30.20
2023-02-11T09:06:19.683Z,27.80
2023-02-11T09:07:19.599Z,29.00
2023-02-11T09:08:19.580Z,28.80
2023-02-11T09:09:19.566Z,30.10
2023-02-11T09:10:19.542Z,27.70
2023-02-11T09:11:19.542Z,28.80
2023-02-11T09:12:19.510Z,28.20
2023-02-11T09:13:19.516Z,29.40
2023-02-11T09:14:19.515Z,30.20
2023-02-11T09:15:19.495Z,29.30
2023-02-11T09:16:19.531Z,29.30
2023-02-11T09:17:19.468Z,28.10
2023-02-11T09:18:19.452Z,27.70
2023-02-11T09:19:19.438Z,29.60
2023-02-11T09:20:19.411Z,29.70
2023-02-11T09:21:19.416Z,28.80
2023-02-11T09:22:19.406Z,30.10
2023-02-11T09:23:19.378Z,28.20
2023-02-11T09:24:19.364Z,28.80
2023-02-11T09:25:19.343Z,27.90
2023-02-11T09:26:19.350Z,27.50
2023-02-11T09:27:19.323Z,27.70
2023-02-11T09:28:19.335Z,27.70
2023-02-11T09:29:19.297Z,28.00
2023-02-11T09:30:19.297Z,28.40
2023-02-11T09:31:19.477Z,28.00
2023-02-11T09:32:19.292Z,29.00
2023-02-11T09:33:19.269Z,27.10
2023-02-11T09:34:19.262Z,28.00
2023-02-11T09:35:19.247Z,27.70
2023-02-11T09:36:19.242Z,28.50
2023-02-11T09:37:19.216Z,28.10
2023-02-11T09:38:19.209Z,27.40
2023-02-11T09:39:19.190Z,27.60
2023-02-11T09:40:19.177Z,26.80
2023-02-11T09:41:19.176Z,27.80
2023-02-11T09:42:19.176Z,27.70
2023-02-11T09:43:19.139Z,27.80
2023-02-11T09:44:19.138Z,28.70
2023-02-11T09:45:19.117Z,27.50
2023-02-11T09:46:19.141Z,29.60
2023-02-11T09:47:19.078Z,28.00
2023-02-11T09:48:19.079Z,28.80
2023-02-11T09:49:19.058Z,27.80
2023-02-11T09:50:19.024Z,26.50
2023-02-11T09:51:19.035Z,29.60
2023-02-11T09:52:19.035Z,28.30
2023-02-11T09:53:19.018Z,27.60
2023-02-11T09:54:19.006Z,27.30
2023-02-11T09:55:18.998Z,28.60
2023-02-11T09:56:18.956Z,28.00
2023-02-11T09:57:28.248Z,27.80
2023-02-11T09:58:20.034Z,29.40
2023-02-11T09:59:18.955Z,30.60
2023-02-11T10:00:18.911Z,30.70
2023-02-11T10:01:21.011Z,29.80
2023-02-11T10:02:18.903Z,27.40
2023-02-11T10:03:18.923Z,29.70
2023-02-11T10:04:18.977Z,29.30
2023-02-11T10:05:18.893Z,29.80
2023-02-11T10:06:18.873Z,28.40
2023-02-11T10:07:18.820Z,28.80
2023-02-11T10:08:18.803Z,31.10
2023-02-11T10:09:18.800Z,27.90
2023-02-11T10:10:18.791Z,28.10
2023-02-11T10:11:30.986Z,27.50
2023-02-11T10:12:19.770Z,28.30
2023-02-11T10:13:18.744Z,30.40
2023-02-11T10:14:18.742Z,30.60
2023-02-11T10:15:18.759Z,30.60
2023-02-11T10:16:18.699Z,30.60
2023-02-11T10:17:18.728Z,29.30
2023-02-11T10:18:18.680Z,28.00
2023-02-11T10:19:18.811Z,28.20
2023-02-11T10:20:18.682Z,28.60
2023-02-11T10:21:18.680Z,29.70
2023-02-11T10:22:18.702Z,29.90
2023-02-11T10:23:18.643Z,29.30
2023-02-11T10:24:18.621Z,29.30
2023-02-11T10:25:18.589Z,28.30
2023-02-11T10:26:18.646Z,29.70
2023-02-11T10:27:18.597Z,31.30
2023-02-11T10:28:18.640Z,28.90
2023-02-11T10:29:18.552Z,29.00
2023-02-11T10:30:18.539Z,28.50
2023-02-11T10:31:18.649Z,29.00
2023-02-11T10:32:18.499Z,28.50
2023-02-11T10:33:18.502Z,29.60
2023-02-11T10:34:18.486Z,29.20
2023-02-11T10:35:18.470Z,30.30
2023-02-11T10:36:18.440Z,28.10
2023-02-11T10:37:18.457Z,29.90
2023-02-11T10:38:18.421Z,29.60
2023-02-11T10:39:18.431Z,29.50
2023-02-11T10:40:18.519Z,29.40
2023-02-11T10:41:18.424Z,27.90
2023-02-11T10:42:18.367Z,28.60
2023-02-11T10:43:18.400Z,29.50
2023-02-11T10:44:18.348Z,28.10
2023-02-11T10:45:18.381Z,29.80
2023-02-11T10:46:18.338Z,28.30
2023-02-11T10:47:18.343Z,29.00
2023-02-11T10:48:18.372Z,29.40
2023-02-11T10:49:18.306Z,28.00
2023-02-11T10:50:18.319Z,27.90
2023-02-11T10:51:18.267Z,28.40
2023-02-11T10:52:18.261Z,29.00
2023-02-11T10:53:18.254Z,28.10
2023-02-11T10:54:18.219Z,28.80
2023-02-11T10:55:18.212Z,28.50
2023-02-11T10:56:18.191Z,29.90
2023-02-11T10:57:18.184Z,28.60
2023-02-11T10:58:18.160Z,27.70
2023-02-11T10:59:21.046Z,28.00
2023-02-11T11:00:18.209Z,29.00
2023-02-11T11:01:24.297Z,26.60
2023-02-11T11:02:19.109Z,28.20
2023-02-11T11:03:18.111Z,27.30
2023-02-11T11:04:18.156Z,28.30
2023-02-11T11:05:18.094Z,28.70
2023-02-11T11:06:18.101Z,27.70
2023-02-11T11:07:18.101Z,28.90
2023-02-11T11:08:18.030Z,29.20
2023-02-11T11:09:18.030Z,28.60
2023-02-11T11:10:18.023Z,29.00
2023-02-11T11:11:18.027Z,27.80
2023-02-11T11:12:18.024Z,30.30
2023-02-11T11:13:17.970Z,29.50
2023-02-11T11:14:17.974Z,28.00
2023-02-11T11:15:18.014Z,27.90
2023-02-11T11:16:18.030Z,27.90
2023-02-11T11:17:17.924Z,29.10
2023-02-11T11:18:23.052Z,28.70
2023-02-11T11:19:18.933Z,28.60
2023-02-11T11:20:17.880Z,27.50
2023-02-11T11:21:17.943Z,29.10
2023-02-11T11:22:17.852Z,28.70
2023-02-11T11:23:17.861Z,28.70
2023-02-11T11:24:17.831Z,28.50
2023-02-11T11:25:17.849Z,28.30
2023-02-11T11:26:17.823Z,28.30
2023-02-11T11:27:17.813Z,28.70
2023-02-11T11:28:17.809Z,28.60
2023-02-11T11:29:17.797Z,29.60
2023-02-11T11:30:17.783Z,29.30
2023-02-11T11:31:17.879Z,29.70
2023-02-11T11:32:19.575Z,29.50
2023-02-11T11:33:17.810Z,29.90
2023-02-11T11:34:17.714Z,29.60
2023-02-11T11:35:17.689Z,28.80
2023-02-11T11:36:17.834Z,30.20
2023-02-11T11:37:17.691Z,28.90
2023-02-11T11:38:17.667Z,28.30
2023-02-11T11:39:17.637Z,28.70
2023-02-11T11:40:17.640Z,28.40
2023-02-11T11:41:17.645Z,27.90
2023-02-11T11:42:17.609Z,28.50
2023-02-11T11:43:17.610Z,30.40
2023-02-11T11:44:17.585Z,27.70
2023-02-11T11:45:17.564Z,28.20
2023-02-11T11:46:17.652Z,28.80
2023-02-11T11:47:17.577Z,28.50
2023-02-11T11:48:17.539Z,27.70
2023-02-11T11:49:17.558Z,28.50
2023-02-11T11:50:20.137Z,29.30
2023-02-11T11:51:17.488Z,29.70
2023-02-11T11:52:17.472Z,29.20
2023-02-11T11:53:17.474Z,30.20
2023-02-11T11:54:17.456Z,28.60
2023-02-11T11:55:17.465Z,29.40
2023-02-11T11:56:17.431Z,29.50
2023-02-11T11:57:17.431Z,28.60
2023-02-11T11:58:17.401Z,26.80
2023-02-11T11:59:17.398Z,27.30
2023-02-11T12:00:17.376Z,28.30
2023-02-11T12:01:17.353Z,28.80
2023-02-11T12:02:17.414Z,28.80
2023-02-11T12:03:17.366Z,28.30
2023-02-11T12:04:17.328Z,29.00
2023-02-11T12:05:17.316Z,26.80
2023-02-11T12:06:17.319Z,28.60
2023-02-11T12:07:17.283Z,29.50
2023-02-11T12:08:17.265Z,26.90
2023-02-11T12:09:17.282Z,27.40
2023-02-11T12:10:17.287Z,28.50
2023-02-11T12:11:17.227Z,27.20
2023-02-11T12:12:17.212Z,27.50
2023-02-11T12:13:17.204Z,28.20
2023-02-11T12:14:17.195Z,27.90
2023-02-11T12:15:17.209Z,27.50
2023-02-11T12:16:17.209Z,27.90
2023-02-11T12:17:17.152Z,27.00
2023-02-11T12:18:17.157Z,27.70
2023-02-11T12:19:17.146Z,28.60
2023-02-11T12:20:17.111Z,27.70
2023-02-11T12:21:17.106Z,28.70
2023-02-11T12:22:17.125Z,27.60
2023-02-11T12:23:17.072Z,27.30
2023-02-11T12:24:17.530Z,28.80
2023-02-11T12:25:17.065Z,27.90
2023-02-11T12:26:17.056Z,27.90
2023-02-11T12:27:17.032Z,27.70
2023-02-11T12:28:17.071Z,27.30
2023-02-11T12:29:17.006Z,27.20
2023-02-11T12:30:16.995Z,29.40
2023-02-11T12:31:17.149Z,27.20
2023-02-11T12:32:17.001Z,28.00
2023-02-11T12:33:16.966Z,28.30
2023-02-11T12:34:16.976Z,28.00
2023-02-11T12:35:16.951Z,27.30
2023-02-11T12:36:16.928Z,27.80
2023-02-11T12:37:16.909Z,27.30
2023-02-11T12:38:16.915Z,27.20
2023-02-11T12:39:16.886Z,27.90
2023-02-11T12:40:16.892Z,27.60
2023-02-11T12:41:16.844Z,27.00
2023-02-11T12:42:16.889Z,27.20
2023-02-11T12:43:16.829Z,27.30
2023-02-11T12:44:16.846Z,27.50
2023-02-11T12:45:16.798Z,26.90
2023-02-11T12:46:16.855Z,26.40
2023-02-11T12:47:16.795Z,27.50
2023-02-11T12:48:16.808Z,27.70
2023-02-11T12:49:16.743Z,26.90
2023-02-11T12:50:16.747Z,27.10
2023-02-11T12:51:16.718Z,27.80
2023-02-11T12:52:16.722Z,27.30